ěÝzenÝ letovÚho provozu ╚eskÚ republiky
Letiste: LKPD Aktualizace: 22.04.2024 01:59:39  UTC
 METAR LKPD 22.04. 02:00 ...
METAR LKPD 220200Z 31003KT 280V350 9999 BKN026 02/M01 Q1020 RMK BLU=
 TAF LKPD 21.04. 23:00 ...
TAF LKPD 212300Z 2200/2300 05005KT 9999 BKN030      TEMPO 2202/2207 BKN020      BECMG 2216/2218 CAVOK=